createdAt,value
2023-03-24T00:01:10.301Z,2.87
2023-03-24T00:03:38.262Z,5.00
2023-03-24T00:06:09.275Z,3.67
2023-03-24T00:08:38.441Z,3.57
2023-03-24T00:11:09.021Z,2.10
2023-03-24T00:13:38.237Z,3.67
2023-03-24T00:16:11.949Z,3.10
2023-03-24T00:18:40.563Z,3.23
2023-03-24T00:21:11.575Z,2.03
2023-03-24T00:23:42.595Z,4.27
2023-03-24T00:26:15.536Z,4.40
2023-03-24T00:28:45.480Z,4.50
2023-03-24T00:31:15.975Z,4.20
2023-03-24T00:33:48.112Z,2.97
2023-03-24T00:36:16.916Z,4.27
2023-03-24T00:38:45.266Z,2.37
2023-03-24T00:41:13.133Z,2.90
2023-03-24T00:43:40.981Z,2.63
2023-03-24T00:46:14.117Z,3.77
2023-03-24T00:48:44.578Z,3.60
2023-03-24T00:51:12.421Z,3.30
2023-03-24T00:53:43.907Z,2.90
2023-03-24T00:56:15.678Z,3.97
2023-03-24T00:58:43.510Z,4.13
2023-03-24T01:01:11.517Z,3.13
2023-03-24T01:03:48.294Z,3.07
2023-03-24T01:06:18.042Z,4.27
2023-03-24T01:08:46.518Z,3.13
2023-03-24T01:11:14.300Z,4.33
2023-03-24T01:13:42.182Z,4.10
2023-03-24T01:16:10.756Z,4.50
2023-03-24T01:18:40.621Z,2.33
2023-03-24T01:21:09.661Z,10.57
2023-03-24T01:23:39.873Z,3.07
2023-03-24T01:26:09.709Z,4.90
2023-03-24T01:28:40.906Z,7.73
2023-03-24T01:31:10.277Z,2.93
2023-03-24T01:33:38.781Z,3.40
2023-03-24T01:36:08.187Z,5.50
2023-03-24T01:38:36.427Z,3.50
2023-03-24T01:41:06.704Z,4.80
2023-03-24T01:43:35.870Z,5.17
2023-03-24T01:46:16.167Z,2.10
2023-03-24T01:48:48.018Z,3.73
2023-03-24T01:51:19.229Z,4.50
2023-03-24T01:53:51.019Z,6.47
2023-03-24T01:56:20.806Z,1.87
2023-03-24T01:58:52.816Z,4.67
2023-03-24T02:01:21.922Z,3.47
2023-03-24T02:03:50.318Z,3.83
2023-03-24T02:06:20.117Z,3.47
2023-03-24T02:08:52.503Z,2.27
2023-03-24T02:11:23.424Z,2.87
2023-03-24T02:13:51.329Z,3.47
2023-03-24T02:16:43.833Z,1.97
2023-03-24T02:19:39.037Z,2.90
2023-03-24T02:22:37.948Z,2.80
2023-03-24T02:25:41.606Z,3.83
2023-03-24T02:28:27.970Z,2.37
2023-03-24T02:31:24.264Z,1.87
2023-03-24T02:34:33.277Z,3.37
2023-03-24T02:37:27.521Z,2.93
2023-03-24T02:40:13.988Z,4.60
2023-03-24T02:42:51.591Z,2.27
2023-03-24T02:45:28.568Z,3.17
2023-03-24T02:48:09.292Z,2.80
2023-03-24T02:50:42.415Z,2.97
2023-03-24T02:53:17.300Z,1.90
2023-03-24T02:55:54.666Z,1.70
2023-03-24T02:58:29.048Z,2.53
2023-03-24T03:01:03.433Z,2.37
2023-03-24T03:03:35.395Z,2.93
2023-03-24T03:06:06.988Z,3.60
2023-03-24T03:08:37.051Z,3.13
2023-03-24T03:11:10.803Z,2.20
2023-03-24T03:13:41.674Z,2.50
2023-03-24T03:16:15.565Z,3.93
2023-03-24T03:18:50.010Z,3.60
2023-03-24T03:21:22.147Z,2.60
2023-03-24T03:23:55.485Z,3.20
2023-03-24T03:26:28.550Z,3.37
2023-03-24T03:29:00.190Z,2.33
2023-03-24T03:31:32.315Z,3.33
2023-03-24T03:34:08.225Z,2.77
2023-03-24T03:36:42.948Z,2.23
2023-03-24T03:39:16.034Z,4.20
2023-03-24T03:41:45.522Z,4.90
2023-03-24T03:44:13.433Z,3.10
2023-03-24T03:46:41.363Z,2.07
2023-03-24T03:49:09.880Z,2.63
2023-03-24T03:51:37.817Z,2.60
2023-03-24T03:54:09.524Z,5.53
2023-03-24T03:56:38.567Z,3.50
2023-03-24T03:59:08.663Z,2.90
2023-03-24T04:01:41.909Z,3.40
2023-03-24T04:04:41.680Z,2.50
2023-03-24T04:07:16.111Z,3.00
2023-03-24T04:09:53.246Z,3.30
2023-03-24T04:12:43.235Z,2.60
2023-03-24T04:15:30.319Z,2.67
2023-03-24T04:18:12.558Z,2.80
2023-03-24T04:20:47.410Z,4.63
2023-03-24T04:23:27.452Z,3.67
2023-03-24T04:26:06.221Z,2.97
2023-03-24T04:28:39.479Z,3.77
2023-03-24T04:31:16.218Z,3.00
2023-03-24T04:33:50.290Z,3.27
2023-03-24T04:36:27.399Z,4.73
2023-03-24T04:38:57.936Z,3.43
2023-03-24T04:41:27.927Z,4.47
2023-03-24T04:43:58.190Z,3.27
2023-03-24T04:46:28.440Z,3.33
2023-03-24T04:48:56.244Z,3.83
2023-03-24T04:51:24.391Z,4.87
2023-03-24T04:53:52.095Z,3.43
2023-03-24T04:56:33.579Z,4.30
2023-03-24T04:59:03.000Z,7.47
2023-03-24T05:01:32.097Z,3.70
2023-03-24T05:04:00.047Z,4.23
2023-03-24T05:06:28.078Z,4.77
2023-03-24T05:08:57.665Z,4.80
2023-03-24T05:11:25.903Z,5.53
2023-03-24T05:13:53.824Z,3.50
2023-03-24T05:16:22.101Z,3.40
2023-03-24T05:18:51.348Z,4.43
2023-03-24T05:21:20.540Z,3.47
2023-03-24T05:23:48.232Z,4.63
2023-03-24T05:26:16.321Z,3.77
2023-03-24T05:28:44.058Z,5.27
2023-03-24T05:31:11.853Z,3.60
2023-03-24T05:33:39.665Z,3.70
2023-03-24T05:36:09.835Z,4.30
2023-03-24T05:38:37.608Z,4.57
2023-03-24T05:41:05.880Z,3.50
2023-03-24T05:43:33.827Z,3.97
2023-03-24T05:46:01.603Z,4.13
2023-03-24T05:48:29.514Z,4.97
2023-03-24T05:50:57.323Z,4.27
2023-03-24T05:53:26.600Z,3.70
2023-03-24T05:55:54.838Z,4.80
2023-03-24T05:58:22.522Z,4.17
2023-03-24T06:00:50.259Z,4.87
2023-03-24T06:03:20.013Z,3.90
2023-03-24T06:05:50.614Z,4.17
2023-03-24T06:08:27.212Z,3.67
2023-03-24T06:11:00.616Z,3.70
2023-03-24T06:13:28.374Z,4.97
2023-03-24T06:15:59.407Z,4.53
2023-03-24T06:18:40.520Z,4.43
2023-03-24T06:21:08.539Z,4.87
2023-03-24T06:23:36.314Z,3.80
2023-03-24T06:26:10.247Z,3.97
2023-03-24T06:28:39.677Z,5.23
2023-03-24T06:31:14.614Z,4.83
2023-03-24T06:33:44.542Z,3.87
2023-03-24T06:36:15.747Z,4.00
2023-03-24T06:38:43.982Z,6.80
2023-03-24T06:41:13.360Z,4.37
2023-03-24T06:43:41.586Z,6.20
2023-03-24T06:46:10.089Z,5.83
2023-03-24T06:48:38.467Z,4.53
2023-03-24T06:51:06.784Z,6.40
2023-03-24T06:53:34.816Z,4.33
2023-03-24T06:56:02.745Z,5.93
2023-03-24T06:58:33.869Z,6.60
2023-03-24T07:01:02.022Z,6.03
2023-03-24T07:03:30.708Z,5.57
2023-03-24T07:06:00.557Z,3.50
2023-03-24T07:08:37.405Z,3.33
2023-03-24T07:11:08.996Z,3.27
2023-03-24T07:13:40.657Z,2.90
2023-03-24T07:16:09.765Z,4.43
2023-03-24T07:18:37.520Z,4.30
2023-03-24T07:21:06.080Z,3.40
2023-03-24T07:23:34.139Z,6.50
2023-03-24T07:26:02.261Z,5.10
2023-03-24T07:28:30.064Z,2.90
2023-03-24T07:31:02.931Z,3.63
2023-03-24T07:33:46.216Z,3.10
2023-03-24T07:36:14.054Z,2.67
2023-03-24T07:38:42.751Z,2.47
2023-03-24T07:41:10.628Z,2.40
2023-03-24T07:43:38.649Z,1.97
2023-03-24T07:46:09.269Z,1.60
2023-03-24T07:48:38.562Z,1.97
2023-03-24T07:51:06.993Z,3.07
2023-03-24T07:53:34.932Z,2.83
2023-03-24T07:56:02.682Z,1.33
2023-03-24T07:58:30.574Z,1.60
2023-03-24T08:00:58.745Z,2.43
2023-03-24T08:03:29.248Z,1.70
2023-03-24T08:05:57.313Z,2.53
2023-03-24T08:08:25.314Z,2.50
2023-03-24T08:10:53.161Z,2.60
2023-03-24T08:13:21.025Z,2.10
2023-03-24T08:15:49.009Z,1.87
2023-03-24T08:18:17.186Z,1.73
2023-03-24T08:20:46.326Z,2.03
2023-03-24T08:23:14.180Z,1.20
2023-03-24T08:25:42.186Z,2.10
2023-03-24T08:28:10.242Z,2.90
2023-03-24T08:30:38.260Z,2.00
2023-03-24T08:33:06.501Z,2.33
2023-03-24T08:35:38.820Z,1.77
2023-03-24T08:38:18.261Z,3.13
2023-03-24T08:40:49.047Z,2.33
2023-03-24T08:43:20.010Z,2.00
2023-03-24T08:45:48.355Z,2.27
2023-03-24T08:48:16.487Z,2.27
2023-03-24T08:50:44.367Z,2.30
2023-03-24T08:53:13.730Z,2.00
2023-03-24T08:55:43.799Z,2.97
2023-03-24T08:58:24.818Z,2.53
2023-03-24T09:00:54.747Z,4.17
2023-03-24T09:03:24.560Z,1.87
2023-03-24T09:05:58.616Z,3.30
2023-03-24T09:08:58.106Z,4.60
2023-03-24T09:11:59.053Z,3.07
2023-03-24T09:14:35.005Z,1.97
2023-03-24T09:17:13.986Z,3.80
2023-03-24T09:19:49.641Z,4.70
2023-03-24T09:26:49.951Z,5.83
2023-03-24T09:29:24.383Z,4.53
2023-03-24T09:32:05.819Z,5.00
2023-03-24T09:35:17.314Z,3.17
2023-03-24T09:37:45.269Z,4.10
2023-03-24T09:48:36.290Z,6.13
2023-03-24T10:02:24.170Z,6.10
2023-03-24T10:04:53.557Z,5.07
2023-03-24T10:11:08.278Z,4.37
2023-03-24T10:13:53.984Z,6.60
2023-03-24T10:16:38.736Z,5.67
2023-03-24T10:19:24.651Z,5.53
2023-03-24T10:22:09.847Z,5.90
2023-03-24T10:24:44.675Z,6.70
2023-03-24T10:33:20.172Z,8.07
2023-03-24T10:36:05.323Z,4.30
2023-03-24T10:38:36.818Z,5.03
2023-03-24T10:41:06.161Z,6.60
2023-03-24T10:43:34.546Z,6.90
2023-03-24T10:46:14.543Z,5.33
2023-03-24T10:48:47.290Z,5.80
2023-03-24T10:51:19.831Z,7.37
2023-03-24T10:54:02.317Z,5.37
2023-03-24T10:56:46.164Z,7.23
2023-03-24T10:59:32.816Z,6.37
2023-03-24T11:02:04.284Z,7.43
2023-03-24T11:04:33.754Z,6.80
2023-03-24T11:07:10.108Z,5.87
2023-03-24T11:09:44.793Z,3.80
2023-03-24T11:12:30.485Z,5.57
2023-03-24T11:15:22.314Z,8.40
2023-03-24T11:18:03.242Z,6.17
2023-03-24T11:20:35.468Z,4.43
2023-03-24T11:23:07.313Z,4.63
2023-03-24T11:25:46.013Z,5.70
2023-03-24T11:28:17.818Z,5.63
2023-03-24T11:30:48.060Z,6.53
2023-03-24T11:33:35.204Z,4.57
2023-03-24T11:36:18.593Z,8.57
2023-03-24T11:39:05.366Z,8.67
2023-03-24T11:41:39.095Z,5.03
2023-03-24T11:44:23.111Z,6.17
2023-03-24T11:46:55.065Z,6.43
2023-03-24T11:49:37.195Z,6.03
2023-03-24T11:52:08.812Z,5.37
2023-03-24T11:54:37.776Z,7.40
2023-03-24T11:57:20.844Z,4.57
2023-03-24T12:00:03.806Z,5.73
2023-03-24T12:02:52.620Z,5.17
2023-03-24T12:05:35.857Z,7.67
2023-03-24T12:08:31.985Z,5.10
2023-03-24T12:11:27.491Z,4.70
2023-03-24T12:14:05.277Z,3.63
2023-03-24T12:17:03.808Z,5.53
2023-03-24T12:19:58.273Z,6.33
2023-03-24T12:22:40.768Z,4.73
2023-03-24T12:25:50.623Z,5.43
2023-03-24T12:28:34.998Z,5.03
2023-03-24T12:31:25.834Z,4.67
2023-03-24T12:34:04.032Z,4.63
2023-03-24T12:36:44.277Z,4.50
2023-03-24T12:39:13.788Z,6.53
2023-03-24T12:41:53.083Z,5.23
2023-03-24T12:45:02.677Z,4.40
2023-03-24T12:47:59.325Z,10.90
2023-03-24T12:50:43.295Z,3.30
2023-03-24T12:53:23.419Z,7.20
2023-03-24T12:55:55.633Z,7.10
2023-03-24T12:58:28.788Z,6.63
2023-03-24T13:01:02.944Z,5.10
2023-03-24T13:03:39.373Z,4.93
2023-03-24T13:06:17.953Z,6.70
2023-03-24T13:09:18.872Z,4.37
2023-03-24T13:15:40.012Z,5.57
2023-03-24T13:18:28.689Z,4.37
2023-03-24T13:21:15.402Z,4.10
2023-03-24T13:23:48.059Z,3.33
2023-03-24T13:26:27.826Z,6.87
2023-03-24T13:29:05.842Z,4.33
2023-03-24T13:31:39.325Z,3.00
2023-03-24T13:34:24.194Z,3.73
2023-03-24T13:37:05.770Z,4.57
2023-03-24T13:39:36.430Z,3.30
2023-03-24T13:42:05.238Z,5.90
2023-03-24T13:44:39.809Z,5.83
2023-03-24T13:47:12.767Z,6.73
2023-03-24T13:49:42.109Z,5.87
2023-03-24T13:52:28.884Z,4.13
2023-03-24T13:55:02.016Z,3.23
2023-03-24T13:57:33.029Z,5.60
2023-03-24T14:00:18.563Z,5.17
2023-03-24T14:02:51.219Z,4.50
2023-03-24T14:06:02.282Z,4.57
2023-03-24T14:08:55.112Z,4.83
2023-03-24T14:11:45.527Z,5.83
2023-03-24T14:14:22.363Z,4.50
2023-03-24T14:17:13.627Z,3.53
2023-03-24T14:20:19.368Z,3.20
2023-03-24T14:22:48.774Z,6.30
2023-03-24T14:25:33.643Z,8.23
2023-03-24T14:28:29.856Z,6.67
2023-03-24T14:31:03.496Z,8.27
2023-03-24T14:33:34.529Z,6.87
2023-03-24T14:36:12.173Z,5.27
2023-03-24T14:38:43.240Z,3.47
2023-03-24T14:41:16.160Z,4.93
2023-03-24T14:44:01.909Z,5.30
2023-03-24T14:46:52.061Z,5.93
2023-03-24T14:49:53.029Z,6.73
2023-03-24T14:52:25.963Z,5.47
2023-03-24T14:55:19.695Z,4.43
2023-03-24T14:57:50.270Z,4.10
2023-03-24T15:00:51.738Z,5.13
2023-03-24T15:03:38.057Z,7.40
2023-03-24T15:06:14.685Z,6.47
2023-03-24T15:08:51.926Z,4.50
2023-03-24T15:11:24.355Z,5.50
2023-03-24T15:13:56.677Z,8.00
2023-03-24T15:16:29.977Z,5.33
2023-03-24T15:19:01.871Z,3.57
2023-03-24T15:21:33.937Z,5.87
2023-03-24T15:24:08.905Z,2.93
2023-03-24T15:26:36.855Z,3.27
2023-03-24T15:29:07.936Z,4.53
2023-03-24T15:31:39.382Z,2.67
2023-03-24T15:34:25.261Z,3.53
2023-03-24T15:36:56.814Z,1.57
2023-03-24T15:39:34.072Z,4.40
2023-03-24T15:42:01.966Z,4.23
2023-03-24T15:44:31.100Z,2.00
2023-03-24T15:47:00.496Z,3.53
2023-03-24T15:49:32.616Z,2.27
2023-03-24T15:52:03.629Z,3.43
2023-03-24T15:54:43.000Z,4.90
2023-03-24T15:57:16.151Z,1.97
2023-03-24T15:59:49.732Z,2.37
2023-03-24T16:02:26.838Z,2.50
2023-03-24T16:05:09.869Z,2.93
2023-03-24T16:07:44.263Z,2.90
2023-03-24T16:10:32.402Z,5.10
2023-03-24T16:13:24.249Z,3.13
2023-03-24T16:16:11.971Z,5.93
2023-03-24T16:18:42.360Z,7.20
2023-03-24T16:21:25.894Z,5.73
2023-03-24T16:23:55.517Z,6.10
2023-03-24T16:26:26.370Z,4.10
2023-03-24T16:28:59.601Z,4.93
2023-03-24T16:31:30.654Z,7.07
2023-03-24T16:34:01.556Z,4.40
2023-03-24T16:36:29.572Z,1.70
2023-03-24T16:39:00.574Z,2.07
2023-03-24T16:41:32.964Z,2.97
2023-03-24T16:44:00.798Z,5.60
2023-03-24T16:46:32.438Z,3.47
2023-03-24T16:49:01.465Z,2.90
2023-03-24T16:51:37.879Z,1.03
2023-03-24T16:54:06.188Z,4.87
2023-03-24T16:56:35.875Z,2.97
2023-03-24T16:59:08.007Z,1.37
2023-03-24T17:01:38.170Z,1.33
2023-03-24T17:04:09.647Z,0.70
2023-03-24T17:09:47.676Z,1.97
2023-03-24T17:12:17.879Z,3.50
2023-03-24T17:14:55.017Z,4.20
2023-03-24T17:20:48.355Z,3.10
2023-03-24T17:23:18.931Z,4.00
2023-03-24T17:25:47.101Z,4.80
2023-03-24T17:28:17.391Z,4.40
2023-03-24T17:30:47.253Z,2.47
2023-03-24T17:33:24.494Z,2.47
2023-03-24T17:39:10.470Z,3.23
2023-03-24T17:41:39.452Z,2.40
2023-03-24T17:44:12.661Z,3.43
2023-03-24T17:46:47.737Z,3.40
2023-03-24T17:49:19.153Z,3.80
2023-03-24T17:51:47.031Z,5.40
2023-03-24T17:58:30.442Z,6.13
2023-03-24T18:01:08.749Z,5.43
2023-03-24T18:03:39.214Z,2.77
2023-03-24T18:06:09.058Z,2.57
2023-03-24T18:08:37.949Z,2.37
2023-03-24T18:11:07.595Z,5.03
2023-03-24T18:13:35.788Z,3.90
2023-03-24T18:16:19.850Z,4.53
2023-03-24T18:18:49.118Z,19.00
2023-03-24T18:21:20.025Z,27.90
2023-03-24T18:23:48.658Z,32.10
2023-03-24T18:26:18.036Z,17.17
2023-03-24T18:28:50.280Z,16.47
2023-03-24T18:31:30.413Z,10.37
2023-03-24T18:34:07.089Z,6.07
2023-03-24T18:44:31.315Z,3.30
2023-03-24T18:47:19.284Z,2.27
2023-03-24T18:49:50.063Z,2.80
2023-03-24T18:52:27.320Z,1.70
2023-03-24T18:59:01.379Z,1.90
2023-03-24T19:01:43.342Z,1.57
2023-03-24T19:04:19.304Z,2.83
2023-03-24T19:06:57.268Z,8.00
2023-03-24T19:09:29.797Z,3.20
2023-03-24T19:11:57.815Z,3.33
2023-03-24T19:14:28.970Z,4.43
2023-03-24T19:17:01.999Z,4.53
2023-03-24T19:19:34.341Z,3.43
2023-03-24T19:22:02.809Z,4.67
2023-03-24T19:24:36.273Z,2.60
2023-03-24T19:27:16.136Z,3.90
2023-03-24T19:29:47.108Z,4.50
2023-03-24T19:32:15.081Z,2.20
2023-03-24T19:34:44.871Z,5.03
2023-03-24T19:37:14.111Z,3.70
2023-03-24T19:39:46.255Z,1.80
2023-03-24T19:42:16.745Z,4.90
2023-03-24T19:44:47.943Z,3.83
2023-03-24T19:47:21.260Z,3.93
2023-03-24T19:50:13.972Z,5.03
2023-03-24T19:52:50.642Z,3.60
2023-03-24T19:55:36.217Z,4.43
2023-03-24T19:59:10.566Z,5.50
2023-03-24T20:04:25.849Z,3.17
2023-03-24T20:07:04.818Z,3.87
2023-03-24T20:09:38.252Z,2.13
2023-03-24T20:12:10.348Z,2.47
2023-03-24T20:15:01.357Z,2.80
2023-03-24T20:17:29.989Z,3.10
2023-03-24T20:19:58.976Z,2.47
2023-03-24T20:22:30.942Z,3.57
2023-03-24T20:24:58.880Z,2.70
2023-03-24T20:30:40.051Z,3.20
2023-03-24T20:33:21.437Z,3.43
2023-03-24T20:36:06.983Z,1.27
2023-03-24T20:39:21.864Z,3.13
2023-03-24T20:42:23.442Z,1.97
2023-03-24T20:44:59.223Z,1.50
2023-03-24T20:47:48.973Z,2.07
2023-03-24T20:50:40.490Z,1.17
2023-03-24T20:53:49.750Z,2.93
2023-03-24T20:56:44.612Z,1.90
2023-03-24T20:59:41.685Z,3.03
2023-03-24T21:02:36.831Z,2.57
2023-03-24T21:08:48.727Z,2.27
2023-03-24T21:11:50.214Z,1.40
2023-03-24T21:14:27.848Z,1.27
2023-03-24T21:18:04.535Z,3.43
2023-03-24T21:21:12.957Z,2.50
2023-03-24T21:24:41.775Z,3.47
2023-03-24T21:27:43.837Z,1.30
2023-03-24T21:30:55.063Z,2.93
2023-03-24T21:36:56.023Z,1.60
2023-03-24T21:39:58.516Z,3.17
2023-03-24T21:42:37.668Z,1.13
2023-03-24T21:45:22.288Z,1.47
2023-03-24T21:48:30.385Z,2.60
2023-03-24T21:52:01.819Z,4.60
2023-03-24T21:58:00.066Z,4.60
2023-03-24T22:01:32.794Z,3.53
2023-03-24T22:04:07.352Z,4.03
2023-03-24T22:06:49.792Z,3.97
2023-03-24T22:09:23.704Z,3.50
2023-03-24T22:11:54.765Z,3.00
2023-03-24T22:14:27.812Z,2.17
2023-03-24T22:16:57.470Z,4.07
2023-03-24T22:19:35.185Z,3.73
2023-03-24T22:22:10.206Z,2.90
2023-03-24T22:24:43.010Z,4.20
2023-03-24T22:27:20.438Z,1.70
2023-03-24T22:29:55.043Z,3.53
2023-03-24T22:32:24.252Z,0.90
2023-03-24T22:35:19.024Z,5.20
2023-03-24T22:38:02.080Z,5.20
2023-03-24T22:40:43.637Z,2.33
2023-03-24T22:43:12.181Z,3.70
2023-03-24T22:45:40.486Z,4.27
2023-03-24T22:48:18.877Z,1.67
2023-03-24T22:50:55.531Z,4.33
2023-03-24T22:53:26.233Z,1.97
2023-03-24T22:55:58.952Z,2.93
2023-03-24T22:58:37.970Z,2.23
2023-03-24T23:01:06.557Z,4.33
2023-03-24T23:03:44.194Z,2.20
2023-03-24T23:06:17.661Z,2.50
2023-03-24T23:08:53.632Z,4.57
2023-03-24T23:11:30.317Z,2.87
2023-03-24T23:14:05.674Z,1.03
2023-03-24T23:19:40.025Z,4.27
2023-03-24T23:22:11.924Z,2.20
2023-03-24T23:24:40.417Z,2.13
2023-03-24T23:27:11.067Z,2.40
2023-03-24T23:29:43.446Z,2.10
2023-03-24T23:32:12.019Z,2.90
2023-03-24T23:34:46.198Z,2.00
2023-03-24T23:37:21.567Z,1.30
2023-03-24T23:39:54.084Z,2.63
2023-03-24T23:42:22.572Z,2.53
2023-03-24T23:44:50.718Z,4.17
2023-03-24T23:47:18.983Z,1.37
2023-03-24T23:49:47.304Z,2.43
2023-03-24T23:52:17.291Z,1.87
2023-03-24T23:54:48.101Z,2.63
2023-03-24T23:57:18.929Z,3.63
2023-03-24T23:59:49.548Z,1.63
